San Bruno, CA

2:28 AM PDT on July 06, 2015 (GMT -0700)
bel air | | Change Station
CLOSE
Current Station
Personal Weather Station
Location: San Bruno, CA
Elevation: 7 ft
Nearby Weather Stations

Elev 7 ft 37.63 °N, 122.41 °W | Updated 5 minutes ago

Overcast
Overcast
61.2 °F
Feels Like 61.2 °F
N
3.7
Wind Variable Wind from WSW

Today
High -- | Low -- °F
--% Chance of Precip.
Yesterday
High -- | Low -- °F
Precip. -- in
5:54 AM 8:34 PM
Waning Gibbous, 77% visible
Pressure 30.03 in
Visibility 10.0 miles
Clouds Few 600 ft
Overcast 1400 ft
Dew Point 58 °F
Humidity 89%
Rainfall 0.00 in
Snow Depth Not available.
UV 0 out of 12
Pollen 3.30 out of 12
Air Quality Not available.
Flu Activity Not available.
METAR KSFO 060856Z 23010KT 10SM FEW006 OVC014 17/13 A3002 RMK AO2 SLP167 T01670133 51006

More Conditions Fewer Conditions

Pressure 30.03 in
Visibility 10.0 miles
Clouds Few 600 ft
Overcast 1400 ft
Dew Point 58 °F
Humidity 89%
Rainfall 0.00 in
Snow Depth Not available.
UV 0 out of 12
Pollen 3.30 out of 12
Air Quality Not available.
Flu Activity Not available.
METAR KSFO 060856Z 23010KT 10SM FEW006 OVC014 17/13 A3002 RMK AO2 SLP167 T01670133 51006

More Conditions Fewer Conditions

10-Day Weather Forecast

×

Almanac

Astronomy

Jul. 06, 2015 Rise Set
Actual Time
Civil Twilight
Nautical Twilight
Astronomical Twilight
Moon
Length of Visible Light
Length of Day
Tomorrow will be .
, % of the Moon is Illuminated

Today's Extremes

State Highs State Lows

Community

WunderPhotos

Upload Photos

1,835,520 photos uploaded!

WunderBlogs® & News

Nearby

Air Quality

  Air Quality AQ Index Pollutant
Not available.

Snow Depth

Station Depth Elevation

Earthquake Activity

City Distance Mag. Time & Date
Minimum magnitude displayed is 2.5.

Coastal Water Temperatures

Place Temperature

Stations

Nearby Weather Stations

Station Location Temp. Windchill Dew Point Humidity Wind Precip. Elev Updated Type